sensor_id;sensor_type;location;lat;lon;timestamp;P1;durP1;ratioP1;P2;durP2;ratioP2
61473;SDS011;53694;49.784;30.150;2023-07-09T00:00:32;6.63;;;2.86;;
61473;SDS011;53694;49.784;30.150;2023-07-09T00:01:34;6.12;;;2.25;;
61473;SDS011;53694;49.784;30.150;2023-07-09T00:02:36;4.41;;;2.16;;
61473;SDS011;53694;49.784;30.150;2023-07-09T00:03:37;4.02;;;1.87;;
61473;SDS011;53694;49.784;30.150;2023-07-09T00:04:38;4.17;;;2.00;;
61473;SDS011;53694;49.784;30.150;2023-07-09T00:05:40;4.59;;;1.97;;
61473;SDS011;53694;49.784;30.150;2023-07-09T00:06:43;5.17;;;2.33;;
61473;SDS011;53694;49.784;30.150;2023-07-09T00:07:45;4.68;;;2.32;;
61473;SDS011;53694;49.784;30.150;2023-07-09T00:08:46;6.25;;;2.47;;
61473;SDS011;53694;49.784;30.150;2023-07-09T00:09:48;5.04;;;2.43;;
61473;SDS011;53694;49.784;30.150;2023-07-09T00:10:50;5.61;;;2.87;;
61473;SDS011;53694;49.784;30.150;2023-07-09T00:11:52;4.46;;;2.47;;
61473;SDS011;53694;49.784;30.150;2023-07-09T00:12:53;7.13;;;2.49;;
61473;SDS011;53694;49.784;30.150;2023-07-09T00:13:55;4.55;;;2.29;;
61473;SDS011;53694;49.784;30.150;2023-07-09T00:14:56;4.69;;;2.51;;
61473;SDS011;53694;49.784;30.150;2023-07-09T00:15:59;7.91;;;2.82;;
61473;SDS011;53694;49.784;30.150;2023-07-09T00:17:04;6.46;;;2.71;;
61473;SDS011;53694;49.784;30.150;2023-07-09T00:18:11;7.61;;;2.59;;
61473;SDS011;53694;49.784;30.150;2023-07-09T00:19:13;7.79;;;2.97;;
61473;SDS011;53694;49.784;30.150;2023-07-09T00:20:16;7.01;;;2.95;;
61473;SDS011;53694;49.784;30.150;2023-07-09T00:21:19;7.79;;;2.94;;
61473;SDS011;53694;49.784;30.150;2023-07-09T00:22:22;6.09;;;2.79;;
61473;SDS011;53694;49.784;30.150;2023-07-09T00:23:24;4.60;;;2.56;;
61473;SDS011;53694;49.784;30.150;2023-07-09T00:24:25;6.79;;;2.63;;
61473;SDS011;53694;49.784;30.150;2023-07-09T00:25:26;6.83;;;2.65;;
61473;SDS011;53694;49.784;30.150;2023-07-09T00:26:28;4.40;;;2.46;;
61473;SDS011;53694;49.784;30.150;2023-07-09T00:27:30;6.75;;;2.37;;
61473;SDS011;53694;49.784;30.150;2023-07-09T00:28:31;4.17;;;2.04;;
61473;SDS011;53694;49.784;30.150;2023-07-09T00:29:33;4.72;;;1.88;;
61473;SDS011;53694;49.784;30.150;2023-07-09T00:30:34;6.36;;;2.37;;
61473;SDS011;53694;49.784;30.150;2023-07-09T00:31:36;6.14;;;2.16;;
61473;SDS011;53694;49.784;30.150;2023-07-09T00:32:38;5.16;;;2.11;;
61473;SDS011;53694;49.784;30.150;2023-07-09T00:33:40;4.26;;;2.54;;
61473;SDS011;53694;49.784;30.150;2023-07-09T00:34:43;3.49;;;2.12;;
61473;SDS011;53694;49.784;30.150;2023-07-09T00:35:44;6.43;;;2.28;;
61473;SDS011;53694;49.784;30.150;2023-07-09T00:36:48;5.37;;;2.53;;
61473;SDS011;53694;49.784;30.150;2023-07-09T00:37:49;10.36;;;5.40;;
61473;SDS011;53694;49.784;30.150;2023-07-09T00:38:51;12.48;;;8.97;;
61473;SDS011;53694;49.784;30.150;2023-07-09T00:39:52;8.92;;;5.62;;
61473;SDS011;53694;49.784;30.150;2023-07-09T00:42:02;5.60;;;3.31;;
61473;SDS011;53694;49.784;30.150;2023-07-09T00:43:04;4.03;;;2.74;;
61473;SDS011;53694;49.784;30.150;2023-07-09T00:44:26;5.26;;;2.52;;
61473;SDS011;53694;49.784;30.150;2023-07-09T00:45:29;5.41;;;2.69;;
61473;SDS011;53694;49.784;30.150;2023-07-09T00:49:06;4.46;;;2.67;;
61473;SDS011;53694;49.784;30.150;2023-07-09T00:51:15;5.21;;;2.33;;
61473;SDS011;53694;49.784;30.150;2023-07-09T00:52:26;5.29;;;2.00;;
61473;SDS011;53694;49.784;30.150;2023-07-09T00:53:30;5.44;;;1.95;;
61473;SDS011;53694;49.784;30.150;2023-07-09T00:54:35;4.18;;;2.06;;
61473;SDS011;53694;49.784;30.150;2023-07-09T00:55:38;5.14;;;1.97;;
61473;SDS011;53694;49.784;30.150;2023-07-09T00:56:43;6.68;;;2.19;;
61473;SDS011;53694;49.784;30.150;2023-07-09T00:57:47;5.44;;;2.37;;
61473;SDS011;53694;49.784;30.150;2023-07-09T00:58:52;5.67;;;2.17;;
61473;SDS011;53694;49.784;30.150;2023-07-09T01:00:01;6.19;;;2.09;;
61473;SDS011;53694;49.784;30.150;2023-07-09T01:01:05;4.73;;;2.29;;
61473;SDS011;53694;49.784;30.150;2023-07-09T01:02:09;6.78;;;2.43;;
61473;SDS011;53694;49.784;30.150;2023-07-09T01:03:57;4.15;;;2.29;;
61473;SDS011;53694;49.784;30.150;2023-07-09T01:04:32;5.34;;;2.83;;
61473;SDS011;53694;49.784;30.150;2023-07-09T01:05:35;6.07;;;2.69;;
61473;SDS011;53694;49.784;30.150;2023-07-09T01:06:43;4.39;;;2.46;;
61473;SDS011;53694;49.784;30.150;2023-07-09T01:07:46;6.08;;;2.64;;
61473;SDS011;53694;49.784;30.150;2023-07-09T01:08:48;7.37;;;2.72;;
61473;SDS011;53694;49.784;30.150;2023-07-09T01:09:50;6.22;;;3.00;;
61473;SDS011;53694;49.784;30.150;2023-07-09T01:10:51;5.62;;;2.99;;
61473;SDS011;53694;49.784;30.150;2023-07-09T01:11:53;6.41;;;3.04;;
61473;SDS011;53694;49.784;30.150;2023-07-09T01:12:55;6.93;;;3.04;;
61473;SDS011;53694;49.784;30.150;2023-07-09T01:13:58;6.63;;;2.84;;
61473;SDS011;53694;49.784;30.150;2023-07-09T01:15:02;6.44;;;3.07;;
61473;SDS011;53694;49.784;30.150;2023-07-09T01:16:04;7.78;;;2.77;;
61473;SDS011;53694;49.784;30.150;2023-07-09T01:17:06;5.57;;;2.28;;
61473;SDS011;53694;49.784;30.150;2023-07-09T01:18:10;4.37;;;2.05;;
61473;SDS011;53694;49.784;30.150;2023-07-09T01:19:12;3.52;;;2.01;;
61473;SDS011;53694;49.784;30.150;2023-07-09T01:20:18;6.67;;;2.16;;
61473;SDS011;53694;49.784;30.150;2023-07-09T01:21:20;4.72;;;1.95;;
61473;SDS011;53694;49.784;30.150;2023-07-09T01:22:22;5.24;;;2.07;;
61473;SDS011;53694;49.784;30.150;2023-07-09T01:23:25;4.66;;;2.31;;
61473;SDS011;53694;49.784;30.150;2023-07-09T01:25:51;5.72;;;2.33;;
61473;SDS011;53694;49.784;30.150;2023-07-09T01:26:53;6.51;;;2.65;;
61473;SDS011;53694;49.784;30.150;2023-07-09T01:27:55;4.85;;;2.54;;
61473;SDS011;53694;49.784;30.150;2023-07-09T01:28:56;6.51;;;2.49;;
61473;SDS011;53694;49.784;30.150;2023-07-09T01:29:59;5.37;;;2.39;;
61473;SDS011;53694;49.784;30.150;2023-07-09T01:31:02;5.13;;;2.69;;
61473;SDS011;53694;49.784;30.150;2023-07-09T01:32:04;4.80;;;2.61;;
61473;SDS011;53694;49.784;30.150;2023-07-09T01:33:06;6.56;;;2.66;;
61473;SDS011;53694;49.784;30.150;2023-07-09T01:34:08;5.64;;;2.79;;
61473;SDS011;53694;49.784;30.150;2023-07-09T01:35:10;7.97;;;2.96;;
61473;SDS011;53694;49.784;30.150;2023-07-09T01:36:14;5.83;;;2.77;;
61473;SDS011;53694;49.784;30.150;2023-07-09T01:37:25;5.28;;;2.77;;
61473;SDS011;53694;49.784;30.150;2023-07-09T01:38:28;6.19;;;2.92;;
61473;SDS011;53694;49.784;30.150;2023-07-09T01:39:30;4.49;;;2.76;;
61473;SDS011;53694;49.784;30.150;2023-07-09T01:40:31;5.39;;;2.61;;
61473;SDS011;53694;49.784;30.150;2023-07-09T01:41:33;6.63;;;2.35;;
61473;SDS011;53694;49.784;30.150;2023-07-09T01:42:35;7.38;;;2.15;;
61473;SDS011;53694;49.784;30.150;2023-07-09T01:43:38;4.25;;;1.74;;
61473;SDS011;53694;49.784;30.150;2023-07-09T01:44:39;7.50;;;2.26;;
61473;SDS011;53694;49.784;30.150;2023-07-09T01:45:41;4.11;;;1.91;;
61473;SDS011;53694;49.784;30.150;2023-07-09T01:46:42;6.21;;;2.41;;
61473;SDS011;53694;49.784;30.150;2023-07-09T01:47:44;5.54;;;2.11;;
61473;SDS011;53694;49.784;30.150;2023-07-09T01:48:45;4.01;;;2.26;;
61473;SDS011;53694;49.784;30.150;2023-07-09T01:49:47;6.55;;;2.47;;
61473;SDS011;53694;49.784;30.150;2023-07-09T01:50:48;7.71;;;2.88;;
61473;SDS011;53694;49.784;30.150;2023-07-09T01:51:50;6.89;;;2.59;;
61473;SDS011;53694;49.784;30.150;2023-07-09T01:52:52;4.47;;;2.45;;
61473;SDS011;53694;49.784;30.150;2023-07-09T01:53:55;6.12;;;2.49;;
61473;SDS011;53694;49.784;30.150;2023-07-09T01:54:56;5.56;;;2.94;;
61473;SDS011;53694;49.784;30.150;2023-07-09T01:55:58;7.04;;;2.86;;
61473;SDS011;53694;49.784;30.150;2023-07-09T01:57:12;5.46;;;2.74;;
61473;SDS011;53694;49.784;30.150;2023-07-09T01:58:16;6.23;;;2.89;;
61473;SDS011;53694;49.784;30.150;2023-07-09T01:59:18;5.25;;;2.89;;
61473;SDS011;53694;49.784;30.150;2023-07-09T02:00:19;5.49;;;2.81;;
61473;SDS011;53694;49.784;30.150;2023-07-09T02:01:21;9.43;;;3.16;;
61473;SDS011;53694;49.784;30.150;2023-07-09T02:02:22;8.51;;;2.97;;
61473;SDS011;53694;49.784;30.150;2023-07-09T02:03:24;6.15;;;3.14;;
61473;SDS011;53694;49.784;30.150;2023-07-09T02:04:26;6.53;;;3.06;;
61473;SDS011;53694;49.784;30.150;2023-07-09T02:05:28;5.99;;;2.86;;
61473;SDS011;53694;49.784;30.150;2023-07-09T02:06:32;5.06;;;2.38;;
61473;SDS011;53694;49.784;30.150;2023-07-09T02:07:33;4.73;;;2.39;;
61473;SDS011;53694;49.784;30.150;2023-07-09T02:08:35;4.09;;;2.24;;
61473;SDS011;53694;49.784;30.150;2023-07-09T02:09:36;4.94;;;2.23;;
61473;SDS011;53694;49.784;30.150;2023-07-09T02:10:38;5.98;;;2.19;;
61473;SDS011;53694;49.784;30.150;2023-07-09T02:11:39;5.79;;;2.29;;
61473;SDS011;53694;49.784;30.150;2023-07-09T02:12:41;6.26;;;2.14;;
61473;SDS011;53694;49.784;30.150;2023-07-09T02:13:42;5.69;;;2.39;;
61473;SDS011;53694;49.784;30.150;2023-07-09T02:14:44;5.76;;;2.64;;
61473;SDS011;53694;49.784;30.150;2023-07-09T02:15:47;4.70;;;2.43;;
61473;SDS011;53694;49.784;30.150;2023-07-09T02:16:48;4.77;;;2.49;;
61473;SDS011;53694;49.784;30.150;2023-07-09T02:17:50;5.97;;;2.72;;
61473;SDS011;53694;49.784;30.150;2023-07-09T02:18:51;6.09;;;2.24;;
61473;SDS011;53694;49.784;30.150;2023-07-09T02:19:53;8.15;;;2.74;;
61473;SDS011;53694;49.784;30.150;2023-07-09T02:20:54;8.10;;;2.66;;
61473;SDS011;53694;49.784;30.150;2023-07-09T02:21:56;7.35;;;2.76;;
61473;SDS011;53694;49.784;30.150;2023-07-09T02:22:58;5.31;;;2.56;;
61473;SDS011;53694;49.784;30.150;2023-07-09T02:23:59;5.20;;;3.00;;
61473;SDS011;53694;49.784;30.150;2023-07-09T02:25:01;8.56;;;3.13;;
61473;SDS011;53694;49.784;30.150;2023-07-09T02:26:04;5.92;;;3.14;;
61473;SDS011;53694;49.784;30.150;2023-07-09T02:27:06;6.37;;;3.09;;
61473;SDS011;53694;49.784;30.150;2023-07-09T02:28:09;8.52;;;3.49;;
61473;SDS011;53694;49.784;30.150;2023-07-09T02:29:10;8.24;;;3.64;;
61473;SDS011;53694;49.784;30.150;2023-07-09T02:30:12;7.19;;;3.73;;
61473;SDS011;53694;49.784;30.150;2023-07-09T02:31:14;7.66;;;3.95;;
61473;SDS011;53694;49.784;30.150;2023-07-09T02:32:19;8.29;;;3.71;;
61473;SDS011;53694;49.784;30.150;2023-07-09T02:33:25;9.39;;;3.79;;
61473;SDS011;53694;49.784;30.150;2023-07-09T02:34:27;7.99;;;3.83;;
61473;SDS011;53694;49.784;30.150;2023-07-09T02:35:29;7.06;;;3.21;;
61473;SDS011;53694;49.784;30.150;2023-07-09T02:36:30;7.21;;;3.31;;
61473;SDS011;53694;49.784;30.150;2023-07-09T02:37:32;7.04;;;3.76;;
61473;SDS011;53694;49.784;30.150;2023-07-09T02:38:34;7.53;;;3.07;;
61473;SDS011;53694;49.784;30.150;2023-07-09T02:39:35;7.40;;;2.97;;
61473;SDS011;53694;49.784;30.150;2023-07-09T02:40:37;7.63;;;3.11;;
61473;SDS011;53694;49.784;30.150;2023-07-09T02:41:40;5.86;;;3.01;;
61473;SDS011;53694;49.784;30.150;2023-07-09T02:42:41;7.35;;;3.58;;
61473;SDS011;53694;49.784;30.150;2023-07-09T02:43:43;7.36;;;3.66;;
61473;SDS011;53694;49.784;30.150;2023-07-09T02:44:45;7.52;;;3.28;;
61473;SDS011;53694;49.784;30.150;2023-07-09T02:45:46;5.67;;;3.10;;
61473;SDS011;53694;49.784;30.150;2023-07-09T02:46:48;6.50;;;3.08;;
61473;SDS011;53694;49.784;30.150;2023-07-09T02:47:50;7.15;;;3.83;;
61473;SDS011;53694;49.784;30.150;2023-07-09T02:48:51;5.76;;;3.19;;
61473;SDS011;53694;49.784;30.150;2023-07-09T02:49:53;6.85;;;3.44;;
61473;SDS011;53694;49.784;30.150;2023-07-09T02:50:54;4.89;;;2.67;;
61473;SDS011;53694;49.784;30.150;2023-07-09T02:51:56;8.84;;;3.26;;
61473;SDS011;53694;49.784;30.150;2023-07-09T02:52:57;7.69;;;3.36;;
61473;SDS011;53694;49.784;30.150;2023-07-09T02:53:59;7.22;;;3.44;;
61473;SDS011;53694;49.784;30.150;2023-07-09T02:55:02;6.44;;;3.31;;
61473;SDS011;53694;49.784;30.150;2023-07-09T02:56:04;5.73;;;2.97;;
61473;SDS011;53694;49.784;30.150;2023-07-09T02:57:06;5.99;;;3.14;;
61473;SDS011;53694;49.784;30.150;2023-07-09T02:58:08;6.11;;;3.35;;
61473;SDS011;53694;49.784;30.150;2023-07-09T02:59:09;8.55;;;3.18;;
61473;SDS011;53694;49.784;30.150;2023-07-09T03:00:11;6.72;;;3.10;;
61473;SDS011;53694;49.784;30.150;2023-07-09T03:01:13;9.53;;;4.13;;
61473;SDS011;53694;49.784;30.150;2023-07-09T03:02:15;7.29;;;4.13;;
61473;SDS011;53694;49.784;30.150;2023-07-09T03:03:16;9.36;;;4.58;;
61473;SDS011;53694;49.784;30.150;2023-07-09T03:04:18;12.83;;;6.44;;
61473;SDS011;53694;49.784;30.150;2023-07-09T03:05:19;14.15;;;7.26;;
61473;SDS011;53694;49.784;30.150;2023-07-09T03:06:21;13.52;;;7.41;;
61473;SDS011;53694;49.784;30.150;2023-07-09T03:07:24;14.01;;;7.01;;
61473;SDS011;53694;49.784;30.150;2023-07-09T03:08:25;12.99;;;7.44;;
61473;SDS011;53694;49.784;30.150;2023-07-09T03:09:27;13.25;;;7.78;;
61473;SDS011;53694;49.784;30.150;2023-07-09T03:10:29;16.55;;;8.91;;
61473;SDS011;53694;49.784;30.150;2023-07-09T03:11:31;22.95;;;13.59;;
61473;SDS011;53694;49.784;30.150;2023-07-09T03:12:34;21.19;;;13.53;;
61473;SDS011;53694;49.784;30.150;2023-07-09T03:13:35;12.11;;;6.03;;
61473;SDS011;53694;49.784;30.150;2023-07-09T03:14:37;21.94;;;9.87;;
61473;SDS011;53694;49.784;30.150;2023-07-09T03:15:38;14.59;;;6.38;;
61473;SDS011;53694;49.784;30.150;2023-07-09T03:16:40;9.76;;;4.39;;
61473;SDS011;53694;49.784;30.150;2023-07-09T03:17:41;8.71;;;4.91;;
61473;SDS011;53694;49.784;30.150;2023-07-09T03:18:43;10.71;;;3.90;;
61473;SDS011;53694;49.784;30.150;2023-07-09T03:19:44;12.26;;;4.59;;
61473;SDS011;53694;49.784;30.150;2023-07-09T03:20:46;9.11;;;4.14;;
61473;SDS011;53694;49.784;30.150;2023-07-09T03:21:47;8.53;;;3.94;;
61473;SDS011;53694;49.784;30.150;2023-07-09T03:22:49;7.06;;;3.40;;
61473;SDS011;53694;49.784;30.150;2023-07-09T03:23:50;8.86;;;3.66;;
61473;SDS011;53694;49.784;30.150;2023-07-09T03:24:52;6.01;;;2.64;;
61473;SDS011;53694;49.784;30.150;2023-07-09T03:25:54;7.46;;;2.66;;
61473;SDS011;53694;49.784;30.150;2023-07-09T03:26:56;5.97;;;2.67;;
61473;SDS011;53694;49.784;30.150;2023-07-09T03:27:58;6.43;;;2.40;;
61473;SDS011;53694;49.784;30.150;2023-07-09T03:28:59;7.79;;;3.00;;
61473;SDS011;53694;49.784;30.150;2023-07-09T03:30:01;7.94;;;2.84;;
61473;SDS011;53694;49.784;30.150;2023-07-09T03:31:03;6.64;;;3.19;;
61473;SDS011;53694;49.784;30.150;2023-07-09T03:32:05;8.93;;;3.34;;
61473;SDS011;53694;49.784;30.150;2023-07-09T03:33:07;10.03;;;3.47;;
61473;SDS011;53694;49.784;30.150;2023-07-09T03:34:09;7.51;;;3.15;;
61473;SDS011;53694;49.784;30.150;2023-07-09T03:35:10;7.04;;;3.49;;
61473;SDS011;53694;49.784;30.150;2023-07-09T03:36:12;6.67;;;3.44;;
61473;SDS011;53694;49.784;30.150;2023-07-09T03:37:13;8.56;;;3.41;;
61473;SDS011;53694;49.784;30.150;2023-07-09T03:38:15;9.27;;;5.01;;
61473;SDS011;53694;49.784;30.150;2023-07-09T03:39:17;8.54;;;4.81;;
61473;SDS011;53694;49.784;30.150;2023-07-09T03:40:22;11.27;;;5.93;;
61473;SDS011;53694;49.784;30.150;2023-07-09T03:41:24;9.59;;;4.97;;
61473;SDS011;53694;49.784;30.150;2023-07-09T03:42:25;9.64;;;5.16;;
61473;SDS011;53694;49.784;30.150;2023-07-09T03:43:27;8.66;;;5.31;;
61473;SDS011;53694;49.784;30.150;2023-07-09T03:44:28;10.08;;;4.95;;
61473;SDS011;53694;49.784;30.150;2023-07-09T03:45:30;8.31;;;4.98;;
61473;SDS011;53694;49.784;30.150;2023-07-09T03:46:33;9.63;;;5.00;;
61473;SDS011;53694;49.784;30.150;2023-07-09T03:47:34;12.59;;;4.71;;
61473;SDS011;53694;49.784;30.150;2023-07-09T03:48:36;8.96;;;4.79;;
61473;SDS011;53694;49.784;30.150;2023-07-09T03:49:37;6.91;;;3.66;;
61473;SDS011;53694;49.784;30.150;2023-07-09T03:50:39;6.74;;;3.19;;
61473;SDS011;53694;49.784;30.150;2023-07-09T03:51:42;6.41;;;2.89;;
61473;SDS011;53694;49.784;30.150;2023-07-09T03:52:43;8.24;;;3.27;;
61473;SDS011;53694;49.784;30.150;2023-07-09T03:53:45;8.72;;;3.17;;
61473;SDS011;53694;49.784;30.150;2023-07-09T03:54:46;4.68;;;2.56;;
61473;SDS011;53694;49.784;30.150;2023-07-09T03:55:51;7.74;;;3.00;;
61473;SDS011;53694;49.784;30.150;2023-07-09T03:56:56;5.72;;;2.94;;
61473;SDS011;53694;49.784;30.150;2023-07-09T03:57:57;7.77;;;3.45;;
61473;SDS011;53694;49.784;30.150;2023-07-09T03:58:59;7.89;;;3.16;;
61473;SDS011;53694;49.784;30.150;2023-07-09T04:00:01;7.06;;;3.39;;
61473;SDS011;53694;49.784;30.150;2023-07-09T04:01:04;6.32;;;3.10;;
61473;SDS011;53694;49.784;30.150;2023-07-09T04:02:06;7.00;;;3.11;;
61473;SDS011;53694;49.784;30.150;2023-07-09T04:03:08;7.20;;;3.03;;
61473;SDS011;53694;49.784;30.150;2023-07-09T04:04:09;5.77;;;3.21;;
61473;SDS011;53694;49.784;30.150;2023-07-09T04:05:11;6.12;;;3.03;;
61473;SDS011;53694;49.784;30.150;2023-07-09T04:06:12;6.28;;;3.02;;
61473;SDS011;53694;49.784;30.150;2023-07-09T04:07:14;8.11;;;3.13;;
61473;SDS011;53694;49.784;30.150;2023-07-09T04:08:16;6.43;;;3.09;;
61473;SDS011;53694;49.784;30.150;2023-07-09T04:09:18;5.16;;;2.96;;
61473;SDS011;53694;49.784;30.150;2023-07-09T04:10:20;4.85;;;3.06;;
61473;SDS011;53694;49.784;30.150;2023-07-09T04:11:21;4.76;;;2.84;;
61473;SDS011;53694;49.784;30.150;2023-07-09T04:12:23;5.29;;;3.21;;
61473;SDS011;53694;49.784;30.150;2023-07-09T04:13:24;5.62;;;2.92;;
61473;SDS011;53694;49.784;30.150;2023-07-09T04:14:25;6.31;;;3.29;;
61473;SDS011;53694;49.784;30.150;2023-07-09T04:15:27;8.66;;;4.17;;
61473;SDS011;53694;49.784;30.150;2023-07-09T04:16:29;9.82;;;5.24;;
61473;SDS011;53694;49.784;30.150;2023-07-09T04:17:30;12.21;;;7.04;;
61473;SDS011;53694;49.784;30.150;2023-07-09T04:18:32;9.06;;;3.86;;
61473;SDS011;53694;49.784;30.150;2023-07-09T04:19:33;5.39;;;2.63;;
61473;SDS011;53694;49.784;30.150;2023-07-09T04:20:35;7.29;;;2.74;;
61473;SDS011;53694;49.784;30.150;2023-07-09T04:21:36;5.87;;;2.45;;
61473;SDS011;53694;49.784;30.150;2023-07-09T04:22:38;4.61;;;2.31;;
61473;SDS011;53694;49.784;30.150;2023-07-09T04:23:39;6.59;;;2.41;;
61473;SDS011;53694;49.784;30.150;2023-07-09T04:24:41;6.14;;;2.86;;
61473;SDS011;53694;49.784;30.150;2023-07-09T04:25:42;5.00;;;2.37;;
61473;SDS011;53694;49.784;30.150;2023-07-09T04:26:44;6.63;;;2.56;;
61473;SDS011;53694;49.784;30.150;2023-07-09T04:27:46;6.33;;;2.76;;
61473;SDS011;53694;49.784;30.150;2023-07-09T04:28:48;6.55;;;3.13;;
61473;SDS011;53694;49.784;30.150;2023-07-09T04:29:50;6.57;;;3.17;;
61473;SDS011;53694;49.784;30.150;2023-07-09T04:30:51;8.02;;;2.97;;
61473;SDS011;53694;49.784;30.150;2023-07-09T04:31:53;8.79;;;3.01;;
61473;SDS011;53694;49.784;30.150;2023-07-09T04:32:54;7.35;;;3.02;;
61473;SDS011;53694;49.784;30.150;2023-07-09T04:33:56;7.16;;;3.06;;
61473;SDS011;53694;49.784;30.150;2023-07-09T04:34:57;7.06;;;3.51;;
61473;SDS011;53694;49.784;30.150;2023-07-09T04:35:59;5.14;;;3.16;;
61473;SDS011;53694;49.784;30.150;2023-07-09T04:37:00;5.34;;;2.90;;
61473;SDS011;53694;49.784;30.150;2023-07-09T04:38:02;7.01;;;2.95;;
61473;SDS011;53694;49.784;30.150;2023-07-09T04:39:03;6.91;;;3.44;;
61473;SDS011;53694;49.784;30.150;2023-07-09T04:40:06;5.67;;;3.14;;
61473;SDS011;53694;49.784;30.150;2023-07-09T04:41:09;7.49;;;3.32;;
61473;SDS011;53694;49.784;30.150;2023-07-09T04:42:11;8.49;;;3.45;;
61473;SDS011;53694;49.784;30.150;2023-07-09T04:43:14;6.92;;;3.22;;
61473;SDS011;53694;49.784;30.150;2023-07-09T04:44:15;5.43;;;3.12;;
61473;SDS011;53694;49.784;30.150;2023-07-09T04:45:17;6.82;;;3.49;;
61473;SDS011;53694;49.784;30.150;2023-07-09T04:46:19;6.16;;;3.28;;
61473;SDS011;53694;49.784;30.150;2023-07-09T04:47:20;6.56;;;3.25;;
61473;SDS011;53694;49.784;30.150;2023-07-09T04:48:21;6.99;;;2.76;;
61473;SDS011;53694;49.784;30.150;2023-07-09T04:49:23;5.34;;;2.96;;
61473;SDS011;53694;49.784;30.150;2023-07-09T04:50:25;6.96;;;2.86;;
61473;SDS011;53694;49.784;30.150;2023-07-09T04:51:26;5.53;;;2.80;;
61473;SDS011;53694;49.784;30.150;2023-07-09T04:52:28;7.49;;;4.37;;
61473;SDS011;53694;49.784;30.150;2023-07-09T04:53:30;5.48;;;3.02;;
61473;SDS011;53694;49.784;30.150;2023-07-09T04:54:32;4.92;;;2.80;;
61473;SDS011;53694;49.784;30.150;2023-07-09T04:55:33;5.30;;;3.35;;
61473;SDS011;53694;49.784;30.150;2023-07-09T04:56:35;5.41;;;2.95;;
61473;SDS011;53694;49.784;30.150;2023-07-09T04:57:36;6.55;;;2.60;;
61473;SDS011;53694;49.784;30.150;2023-07-09T04:58:38;5.24;;;2.68;;
61473;SDS011;53694;49.784;30.150;2023-07-09T04:59:40;4.90;;;2.58;;
61473;SDS011;53694;49.784;30.150;2023-07-09T05:00:41;7.74;;;2.79;;
61473;SDS011;53694;49.784;30.150;2023-07-09T05:01:43;6.18;;;2.63;;
61473;SDS011;53694;49.784;30.150;2023-07-09T05:02:44;5.73;;;2.94;;
61473;SDS011;53694;49.784;30.150;2023-07-09T05:03:46;7.55;;;3.01;;
61473;SDS011;53694;49.784;30.150;2023-07-09T05:04:48;6.75;;;3.06;;
61473;SDS011;53694;49.784;30.150;2023-07-09T05:05:49;5.52;;;2.62;;
61473;SDS011;53694;49.784;30.150;2023-07-09T05:06:51;6.28;;;2.45;;
61473;SDS011;53694;49.784;30.150;2023-07-09T05:07:53;5.03;;;2.97;;
61473;SDS011;53694;49.784;30.150;2023-07-09T05:08:54;6.17;;;3.34;;
61473;SDS011;53694;49.784;30.150;2023-07-09T05:09:56;5.11;;;3.09;;
61473;SDS011;53694;49.784;30.150;2023-07-09T05:10:57;6.76;;;3.11;;
61473;SDS011;53694;49.784;30.150;2023-07-09T05:11:59;5.47;;;2.90;;
61473;SDS011;53694;49.784;30.150;2023-07-09T05:13:01;7.95;;;3.01;;
61473;SDS011;53694;49.784;30.150;2023-07-09T05:14:03;12.20;;;7.21;;
61473;SDS011;53694;49.784;30.150;2023-07-09T05:15:05;13.82;;;9.09;;
61473;SDS011;53694;49.784;30.150;2023-07-09T05:16:07;18.36;;;11.46;;
61473;SDS011;53694;49.784;30.150;2023-07-09T05:17:09;8.24;;;4.24;;
61473;SDS011;53694;49.784;30.150;2023-07-09T05:18:13;9.56;;;3.16;;
61473;SDS011;53694;49.784;30.150;2023-07-09T05:19:15;6.67;;;3.43;;
61473;SDS011;53694;49.784;30.150;2023-07-09T05:20:17;6.81;;;3.21;;
61473;SDS011;53694;49.784;30.150;2023-07-09T05:21:19;7.87;;;2.67;;
61473;SDS011;53694;49.784;30.150;2023-07-09T05:22:20;5.39;;;3.17;;
61473;SDS011;53694;49.784;30.150;2023-07-09T05:23:23;4.78;;;2.73;;
61473;SDS011;53694;49.784;30.150;2023-07-09T05:24:25;8.71;;;3.09;;
61473;SDS011;53694;49.784;30.150;2023-07-09T05:25:27;7.93;;;3.30;;
61473;SDS011;53694;49.784;30.150;2023-07-09T05:26:29;7.43;;;2.52;;
61473;SDS011;53694;49.784;30.150;2023-07-09T05:27:31;5.65;;;2.89;;
61473;SDS011;53694;49.784;30.150;2023-07-09T05:28:32;6.95;;;2.78;;
61473;SDS011;53694;49.784;30.150;2023-07-09T05:29:34;5.24;;;2.80;;
61473;SDS011;53694;49.784;30.150;2023-07-09T05:30:35;8.01;;;2.85;;
61473;SDS011;53694;49.784;30.150;2023-07-09T05:31:37;5.76;;;2.71;;
61473;SDS011;53694;49.784;30.150;2023-07-09T05:32:38;5.99;;;2.91;;
61473;SDS011;53694;49.784;30.150;2023-07-09T05:33:40;5.74;;;2.93;;
61473;SDS011;53694;49.784;30.150;2023-07-09T05:34:41;5.74;;;2.64;;
61473;SDS011;53694;49.784;30.150;2023-07-09T05:35:43;5.24;;;2.74;;
61473;SDS011;53694;49.784;30.150;2023-07-09T05:36:45;4.44;;;2.53;;
61473;SDS011;53694;49.784;30.150;2023-07-09T05:37:47;5.84;;;2.62;;
61473;SDS011;53694;49.784;30.150;2023-07-09T05:38:48;8.48;;;2.61;;
61473;SDS011;53694;49.784;30.150;2023-07-09T05:39:50;5.68;;;3.06;;
61473;SDS011;53694;49.784;30.150;2023-07-09T05:41:01;5.66;;;2.86;;
61473;SDS011;53694;49.784;30.150;2023-07-09T05:42:04;6.09;;;2.67;;
61473;SDS011;53694;49.784;30.150;2023-07-09T05:43:07;5.69;;;2.57;;
61473;SDS011;53694;49.784;30.150;2023-07-09T05:44:08;6.78;;;2.89;;
61473;SDS011;53694;49.784;30.150;2023-07-09T05:45:10;5.98;;;2.89;;
61473;SDS011;53694;49.784;30.150;2023-07-09T05:46:12;5.32;;;2.77;;
61473;SDS011;53694;49.784;30.150;2023-07-09T05:47:14;7.55;;;3.07;;
61473;SDS011;53694;49.784;30.150;2023-07-09T05:48:16;8.09;;;3.29;;
61473;SDS011;53694;49.784;30.150;2023-07-09T05:49:18;6.30;;;2.70;;
61473;SDS011;53694;49.784;30.150;2023-07-09T05:50:19;5.69;;;2.74;;
61473;SDS011;53694;49.784;30.150;2023-07-09T05:51:21;5.11;;;3.04;;
61473;SDS011;53694;49.784;30.150;2023-07-09T05:52:23;5.32;;;2.99;;
61473;SDS011;53694;49.784;30.150;2023-07-09T05:53:24;5.71;;;2.75;;
61473;SDS011;53694;49.784;30.150;2023-07-09T05:54:26;5.14;;;2.82;;
61473;SDS011;53694;49.784;30.150;2023-07-09T05:55:28;6.06;;;2.83;;
61473;SDS011;53694;49.784;30.150;2023-07-09T05:56:29;6.05;;;3.01;;
61473;SDS011;53694;49.784;30.150;2023-07-09T05:57:31;17.75;;;12.07;;
61473;SDS011;53694;49.784;30.150;2023-07-09T05:58:33;23.53;;;17.84;;
61473;SDS011;53694;49.784;30.150;2023-07-09T05:59:34;7.73;;;4.69;;
61473;SDS011;53694;49.784;30.150;2023-07-09T06:00:36;5.37;;;3.16;;
61473;SDS011;53694;49.784;30.150;2023-07-09T06:01:37;5.68;;;2.76;;
61473;SDS011;53694;49.784;30.150;2023-07-09T06:02:39;5.61;;;2.70;;
61473;SDS011;53694;49.784;30.150;2023-07-09T06:03:40;7.33;;;2.66;;
61473;SDS011;53694;49.784;30.150;2023-07-09T06:04:42;5.97;;;2.92;;
61473;SDS011;53694;49.784;30.150;2023-07-09T06:05:44;7.08;;;2.77;;
61473;SDS011;53694;49.784;30.150;2023-07-09T06:06:45;8.14;;;2.61;;
61473;SDS011;53694;49.784;30.150;2023-07-09T06:07:46;5.93;;;2.72;;
61473;SDS011;53694;49.784;30.150;2023-07-09T06:08:48;7.81;;;2.88;;
61473;SDS011;53694;49.784;30.150;2023-07-09T06:09:50;5.34;;;2.58;;
61473;SDS011;53694;49.784;30.150;2023-07-09T06:10:56;10.46;;;3.24;;
61473;SDS011;53694;49.784;30.150;2023-07-09T06:11:59;14.03;;;8.64;;
61473;SDS011;53694;49.784;30.150;2023-07-09T06:13:00;21.24;;;13.11;;
61473;SDS011;53694;49.784;30.150;2023-07-09T06:14:02;16.28;;;10.26;;
61473;SDS011;53694;49.784;30.150;2023-07-09T06:15:03;5.40;;;3.06;;